createdAt,value
2019-01-24T00:01:48.283Z,17.75
2019-01-24T00:03:51.172Z,17.50
2019-01-24T00:05:54.077Z,16.25
2019-01-24T00:07:58.650Z,18.80
2019-01-24T00:10:01.546Z,18.30
2019-01-24T00:12:05.347Z,19.40
2019-01-24T00:14:08.340Z,19.20
2019-01-24T00:16:12.014Z,17.77
2019-01-24T00:18:15.760Z,19.02
2019-01-24T00:20:18.611Z,18.50
2019-01-24T00:22:23.022Z,17.52
2019-01-24T00:24:26.338Z,16.07
2019-01-24T00:26:29.987Z,18.87
2019-01-24T00:28:32.908Z,18.10
2019-01-24T00:30:36.223Z,18.30
2019-01-24T00:32:40.391Z,20.40
2019-01-24T00:34:43.289Z,17.83
2019-01-24T00:36:46.719Z,18.85
2019-01-24T00:38:49.611Z,18.02
2019-01-24T00:40:52.545Z,18.40
2019-01-24T00:42:56.204Z,19.02
2019-01-24T00:44:59.091Z,19.27
2019-01-24T00:47:02.107Z,18.65
2019-01-24T00:49:05.775Z,17.98
2019-01-24T00:51:08.675Z,18.60
2019-01-24T00:53:11.670Z,19.27
2019-01-24T00:55:15.401Z,18.58
2019-01-24T00:57:19.083Z,16.87
2019-01-24T00:59:22.170Z,19.60
2019-01-24T01:01:25.811Z,16.60
2019-01-24T01:03:28.688Z,19.27
2019-01-24T01:05:31.926Z,18.10
2019-01-24T01:07:34.802Z,17.92
2019-01-24T01:09:37.682Z,20.08
2019-01-24T01:11:41.409Z,18.80
2019-01-24T01:13:44.301Z,19.25
2019-01-24T01:15:47.228Z,17.80
2019-01-24T01:17:50.114Z,18.52
2019-01-24T01:19:54.566Z,18.77
2019-01-24T01:21:58.243Z,17.42
2019-01-24T01:24:01.152Z,16.98
2019-01-24T01:26:04.227Z,17.70
2019-01-24T01:28:07.922Z,20.67
2019-01-24T01:30:21.231Z,17.42
2019-01-24T01:32:25.640Z,17.50
2019-01-24T01:34:28.786Z,19.90
2019-01-24T01:36:32.547Z,16.90
2019-01-24T01:38:36.247Z,18.75
2019-01-24T01:40:39.950Z,19.62
2019-01-24T01:42:43.639Z,16.08
2019-01-24T01:44:48.035Z,18.03
2019-01-24T01:46:51.068Z,17.70
2019-01-24T01:48:54.711Z,18.70
2019-01-24T01:50:57.606Z,16.15
2019-01-24T01:53:00.976Z,19.40
2019-01-24T01:55:03.859Z,16.50
2019-01-24T01:57:06.768Z,17.87
2019-01-24T01:59:10.901Z,17.37
2019-01-24T02:01:14.559Z,17.30
2019-01-24T02:03:17.438Z,17.62
2019-01-24T02:05:20.438Z,17.70
2019-01-24T02:07:23.427Z,15.50
2019-01-24T02:09:26.406Z,17.27
2019-01-24T02:11:29.423Z,16.05
2019-01-24T02:13:33.070Z,17.58
2019-01-24T02:15:35.979Z,17.40
2019-01-24T02:17:38.850Z,18.13
2019-01-24T02:19:41.787Z,17.00
2019-01-24T02:21:44.721Z,15.15
2019-01-24T02:23:47.702Z,16.33
2019-01-24T02:25:50.582Z,17.25
2019-01-24T02:27:53.494Z,17.35
2019-01-24T02:29:57.214Z,16.25
2019-01-24T02:32:00.156Z,17.23
2019-01-24T02:34:03.163Z,17.33
2019-01-24T02:36:06.783Z,17.10
2019-01-24T02:38:09.915Z,17.05
2019-01-24T02:40:12.894Z,16.75
2019-01-24T02:42:15.778Z,16.17
2019-01-24T02:44:18.857Z,16.23
2019-01-24T02:46:21.734Z,16.95
2019-01-24T02:48:26.475Z,16.92
2019-01-24T02:50:31.021Z,16.08
2019-01-24T02:52:34.640Z,17.43
2019-01-24T02:54:37.526Z,14.70
2019-01-24T02:56:40.841Z,16.95
2019-01-24T02:58:47.798Z,17.23
2019-01-24T03:00:50.688Z,15.67
2019-01-24T03:02:53.562Z,16.00
2019-01-24T03:04:57.099Z,15.95
2019-01-24T03:07:00.274Z,17.17
2019-01-24T03:09:03.190Z,16.27
2019-01-24T03:11:06.138Z,16.58
2019-01-24T03:13:09.022Z,16.20
2019-01-24T03:15:12.727Z,17.00
2019-01-24T03:17:16.374Z,16.67
2019-01-24T03:19:20.823Z,16.00
2019-01-24T03:21:23.713Z,16.48
2019-01-24T03:23:26.599Z,14.48
2019-01-24T03:25:29.684Z,15.05
2019-01-24T03:27:34.094Z,15.05
2019-01-24T03:29:36.976Z,15.50
2019-01-24T03:31:39.895Z,15.50
2019-01-24T03:33:43.596Z,15.32
2019-01-24T03:35:47.370Z,15.40
2019-01-24T03:37:50.446Z,14.15
2019-01-24T03:39:53.326Z,14.73
2019-01-24T03:41:56.313Z,16.05
2019-01-24T03:43:59.204Z,14.82
2019-01-24T03:46:02.094Z,16.37
2019-01-24T03:48:06.076Z,17.33
2019-01-24T03:50:09.690Z,14.80
2019-01-24T03:52:13.357Z,16.90
2019-01-24T03:54:16.297Z,15.77
2019-01-24T03:56:19.960Z,15.43
2019-01-24T03:58:24.300Z,14.80
2019-01-24T04:00:27.210Z,16.37
2019-01-24T04:02:31.034Z,17.10
2019-01-24T04:04:33.923Z,17.17
2019-01-24T04:06:36.920Z,17.83
2019-01-24T04:08:39.829Z,15.95
2019-01-24T04:10:44.111Z,16.98
2019-01-24T04:12:47.014Z,16.52
2019-01-24T04:14:50.698Z,18.10
2019-01-24T04:16:54.277Z,18.27
2019-01-24T04:18:57.185Z,16.90
2019-01-24T04:21:00.988Z,17.52
2019-01-24T04:23:04.655Z,17.92
2019-01-24T04:25:07.555Z,19.12
2019-01-24T04:27:10.451Z,17.77
2019-01-24T04:29:14.039Z,16.08
2019-01-24T04:31:17.018Z,16.77
2019-01-24T04:33:20.012Z,18.48
2019-01-24T04:35:23.692Z,17.52
2019-01-24T04:37:26.563Z,20.77
2019-01-24T04:39:29.930Z,19.17
2019-01-24T04:41:33.061Z,18.87
2019-01-24T04:43:35.958Z,17.55
2019-01-24T04:45:40.354Z,18.60
2019-01-24T04:47:43.262Z,18.40
2019-01-24T04:49:46.956Z,17.92
2019-01-24T04:51:51.346Z,17.62
2019-01-24T04:53:54.379Z,20.90
2019-01-24T04:55:57.273Z,19.23
2019-01-24T04:58:00.220Z,20.35
2019-01-24T05:00:06.921Z,19.98
2019-01-24T05:02:10.554Z,20.20
2019-01-24T05:04:13.474Z,19.98
2019-01-24T05:06:17.390Z,19.20
2019-01-24T05:08:21.546Z,21.70
2019-01-24T05:10:24.476Z,20.15
2019-01-24T05:12:28.130Z,20.77
2019-01-24T05:14:31.024Z,23.62
2019-01-24T05:16:34.017Z,21.35
2019-01-24T05:18:37.631Z,22.50
2019-01-24T05:20:41.426Z,21.80
2019-01-24T05:22:45.719Z,23.33
2019-01-24T05:24:48.598Z,23.98
2019-01-24T05:26:51.478Z,23.92
2019-01-24T05:28:54.475Z,20.88
2019-01-24T05:30:58.159Z,23.25
2019-01-24T05:33:01.317Z,20.98
2019-01-24T05:35:04.218Z,23.02
2019-01-24T05:37:07.223Z,23.55
2019-01-24T05:39:10.122Z,25.35
2019-01-24T05:41:13.902Z,24.87
2019-01-24T05:43:17.494Z,24.67
2019-01-24T05:45:20.421Z,25.55
2019-01-24T05:47:24.080Z,23.23
2019-01-24T05:49:26.969Z,24.70
2019-01-24T05:51:31.084Z,25.00
2019-01-24T05:53:34.776Z,23.87
2019-01-24T05:55:37.687Z,24.98
2019-01-24T05:57:41.878Z,28.35
2019-01-24T05:59:45.570Z,24.33
2019-01-24T06:01:48.458Z,23.53
2019-01-24T06:03:52.174Z,24.63
2019-01-24T06:05:55.134Z,25.23
2019-01-24T06:07:58.826Z,24.92
2019-01-24T06:10:02.389Z,25.00
2019-01-24T06:12:05.586Z,26.57
2019-01-24T06:14:08.516Z,26.87
2019-01-24T06:16:12.199Z,25.40
2019-01-24T06:18:16.584Z,27.70
2019-01-24T06:20:20.259Z,26.17
2019-01-24T06:22:24.016Z,26.85
2019-01-24T06:24:26.903Z,25.60
2019-01-24T06:26:30.766Z,24.95
2019-01-24T06:28:33.741Z,24.53
2019-01-24T06:30:37.259Z,26.10
2019-01-24T06:32:40.162Z,26.85
2019-01-24T06:34:44.563Z,24.42
2019-01-24T06:36:48.386Z,23.33
2019-01-24T06:38:51.367Z,22.95
2019-01-24T06:40:55.054Z,23.87
2019-01-24T06:42:58.051Z,24.45
2019-01-24T06:45:01.037Z,23.50
2019-01-24T06:47:04.708Z,25.42
2019-01-24T06:49:07.606Z,23.62
2019-01-24T06:51:11.322Z,24.73
2019-01-24T06:53:15.002Z,25.00
2019-01-24T06:55:19.024Z,26.98
2019-01-24T06:57:22.683Z,26.15
2019-01-24T06:59:26.055Z,24.20
2019-01-24T07:01:29.002Z,24.42
2019-01-24T07:03:31.937Z,24.02
2019-01-24T07:05:34.842Z,26.10
2019-01-24T07:07:38.005Z,25.08
2019-01-24T07:09:41.399Z,25.27
2019-01-24T07:11:44.389Z,26.42
2019-01-24T07:13:47.277Z,27.62
2019-01-24T07:15:50.274Z,24.05
2019-01-24T07:17:54.013Z,23.45
2019-01-24T07:19:57.683Z,24.33
2019-01-24T07:22:01.392Z,24.80
2019-01-24T07:24:05.094Z,24.63
2019-01-24T07:26:07.955Z,24.85
2019-01-24T07:28:12.491Z,26.70
2019-01-24T07:30:16.771Z,28.45
2019-01-24T07:32:19.671Z,26.60
2019-01-24T07:34:22.686Z,24.87
2019-01-24T07:36:26.386Z,26.30
2019-01-24T07:38:30.038Z,26.73
2019-01-24T07:40:33.244Z,27.48
2019-01-24T07:42:36.236Z,30.73
2019-01-24T07:44:40.782Z,27.95
2019-01-24T07:46:43.702Z,26.58
2019-01-24T07:48:46.946Z,28.23
2019-01-24T07:50:50.579Z,25.35
2019-01-24T07:52:53.710Z,24.73
2019-01-24T07:54:57.370Z,24.57
2019-01-24T07:57:00.296Z,26.08
2019-01-24T07:59:03.973Z,26.20
2019-01-24T08:01:06.863Z,26.85
2019-01-24T08:03:09.980Z,25.65
2019-01-24T08:05:13.643Z,27.50
2019-01-24T08:07:16.767Z,24.05
2019-01-24T08:09:20.434Z,25.92
2019-01-24T08:11:23.375Z,27.85
2019-01-24T08:13:26.277Z,24.45
2019-01-24T08:15:29.292Z,24.55
2019-01-24T08:17:33.010Z,23.50
2019-01-24T08:19:36.666Z,27.02
2019-01-24T08:21:39.544Z,27.73
2019-01-24T08:23:42.440Z,25.77
2019-01-24T08:25:45.334Z,24.87
2019-01-24T08:27:49.014Z,24.80
2019-01-24T08:29:51.985Z,26.92
2019-01-24T08:31:54.861Z,26.20
2019-01-24T08:33:57.750Z,27.77
2019-01-24T08:36:00.678Z,26.50
2019-01-24T08:38:04.446Z,27.80
2019-01-24T08:40:08.252Z,26.20
2019-01-24T08:42:12.267Z,26.70
2019-01-24T08:44:15.919Z,29.70
2019-01-24T08:46:19.590Z,26.90
2019-01-24T08:48:23.251Z,28.27
2019-01-24T08:50:26.150Z,28.92
2019-01-24T08:52:29.803Z,23.67
2019-01-24T08:54:32.720Z,28.40
2019-01-24T08:56:35.610Z,26.48
2019-01-24T08:58:39.266Z,28.00
2019-01-24T09:00:42.171Z,27.92
2019-01-24T09:02:45.046Z,25.55
2019-01-24T09:04:47.938Z,27.33
2019-01-24T09:06:50.841Z,28.85
2019-01-24T09:08:54.522Z,25.13
2019-01-24T09:10:57.391Z,26.92
2019-01-24T09:13:01.054Z,27.83
2019-01-24T09:15:03.935Z,22.47
2019-01-24T09:17:06.849Z,28.60
2019-01-24T09:19:09.751Z,25.48
2019-01-24T09:21:13.409Z,27.08
2019-01-24T09:23:16.403Z,26.98
2019-01-24T09:25:19.279Z,26.65
2019-01-24T09:27:22.159Z,29.95
2019-01-24T09:29:26.491Z,28.27
2019-01-24T09:31:29.362Z,26.60
2019-01-24T09:33:32.282Z,27.15
2019-01-24T09:35:35.950Z,27.00
2019-01-24T09:37:38.826Z,28.20
2019-01-24T09:39:41.727Z,26.73
2019-01-24T09:41:44.636Z,26.95
2019-01-24T09:43:48.270Z,28.80
2019-01-24T09:45:51.215Z,26.42
2019-01-24T09:47:54.950Z,27.43
2019-01-24T09:49:57.830Z,30.80
2019-01-24T09:52:00.726Z,24.10
2019-01-24T09:54:03.635Z,26.52
2019-01-24T09:56:07.282Z,27.85
2019-01-24T09:58:10.278Z,26.93
2019-01-24T10:00:17.970Z,26.70
2019-01-24T10:02:20.867Z,27.20
2019-01-24T10:04:23.782Z,32.30
2019-01-24T10:06:26.752Z,31.42
2019-01-24T10:08:30.431Z,27.83
2019-01-24T10:10:33.306Z,28.70
2019-01-24T10:12:36.204Z,27.55
2019-01-24T10:14:39.082Z,30.90
2019-01-24T10:16:42.767Z,27.02
2019-01-24T10:18:45.654Z,29.23
2019-01-24T10:20:48.538Z,28.02
2019-01-24T10:22:51.530Z,28.65
2019-01-24T10:24:54.414Z,27.83
2019-01-24T10:26:57.315Z,28.95
2019-01-24T10:29:00.996Z,28.70
2019-01-24T10:31:03.893Z,26.70
2019-01-24T10:33:07.986Z,25.08
2019-01-24T10:35:10.866Z,26.33
2019-01-24T10:37:13.776Z,30.67
2019-01-24T10:39:17.863Z,30.73
2019-01-24T10:41:21.554Z,25.10
2019-01-24T10:43:24.441Z,29.60
2019-01-24T10:45:29.055Z,28.20
2019-01-24T10:47:33.451Z,26.33
2019-01-24T10:49:36.381Z,27.73
2019-01-24T10:51:40.063Z,26.73
2019-01-24T10:53:43.029Z,27.25
2019-01-24T10:55:45.915Z,26.37
2019-01-24T10:57:48.824Z,27.05
2019-01-24T10:59:52.521Z,28.98
2019-01-24T11:01:56.174Z,27.15
2019-01-24T11:03:59.060Z,26.02
2019-01-24T11:06:01.943Z,27.85
2019-01-24T11:08:04.874Z,27.20
2019-01-24T11:10:07.762Z,27.80
2019-01-24T11:12:10.739Z,28.58
2019-01-24T11:14:13.628Z,30.00
2019-01-24T11:16:16.567Z,27.23
2019-01-24T11:18:19.467Z,29.02
2019-01-24T11:20:23.561Z,26.35
2019-01-24T11:22:26.473Z,27.77
2019-01-24T11:24:29.843Z,28.50
2019-01-24T11:26:33.564Z,28.77
2019-01-24T11:28:37.342Z,30.17
2019-01-24T11:30:41.134Z,30.67
2019-01-24T11:32:44.114Z,31.00
2019-01-24T11:34:47.014Z,25.90
2019-01-24T11:36:49.987Z,29.25
2019-01-24T11:38:52.887Z,27.05
2019-01-24T11:40:56.596Z,28.62
2019-01-24T11:43:00.371Z,26.98
2019-01-24T11:45:04.109Z,27.02
2019-01-24T11:47:07.734Z,25.02
2019-01-24T11:49:10.849Z,25.17
2019-01-24T11:51:13.743Z,27.08
2019-01-24T11:53:20.638Z,25.73
2019-01-24T11:55:23.757Z,26.13
2019-01-24T11:57:26.706Z,26.35
2019-01-24T11:59:30.390Z,27.15
2019-01-24T12:01:34.047Z,27.00
2019-01-24T12:03:37.654Z,28.95
2019-01-24T12:05:40.550Z,28.33
2019-01-24T12:07:43.551Z,27.92
2019-01-24T12:09:47.220Z,24.70
2019-01-24T12:11:50.123Z,23.73
2019-01-24T12:13:53.847Z,25.47
2019-01-24T12:15:56.832Z,24.83
2019-01-24T12:18:00.283Z,25.40
2019-01-24T12:20:03.175Z,23.92
2019-01-24T12:22:06.074Z,24.70
2019-01-24T12:24:10.523Z,23.77
2019-01-24T12:26:13.447Z,22.80
2019-01-24T12:28:16.346Z,25.90
2019-01-24T12:30:34.182Z,25.62
2019-01-24T12:32:38.513Z,23.12
2019-01-24T12:34:42.275Z,25.95
2019-01-24T12:36:45.175Z,25.02
2019-01-24T12:38:48.831Z,22.23
2019-01-24T12:40:51.750Z,21.97
2019-01-24T12:42:55.443Z,25.17
2019-01-24T12:44:58.325Z,24.63
2019-01-24T12:47:01.261Z,24.63
2019-01-24T12:49:04.178Z,21.70
2019-01-24T12:51:07.306Z,24.23
2019-01-24T12:53:11.693Z,22.85
2019-01-24T12:55:14.593Z,20.25
2019-01-24T12:57:18.406Z,20.90
2019-01-24T12:59:22.854Z,22.55
2019-01-24T13:01:25.783Z,19.92
2019-01-24T13:03:29.442Z,23.55
2019-01-24T13:05:32.351Z,19.47
2019-01-24T13:07:35.241Z,24.23
2019-01-24T13:09:38.226Z,22.05
2019-01-24T13:11:41.903Z,23.20
2019-01-24T13:13:45.487Z,22.15
2019-01-24T13:15:48.388Z,21.45
2019-01-24T13:17:51.275Z,22.30
2019-01-24T13:19:54.278Z,20.83
2019-01-24T13:21:57.949Z,22.50
2019-01-24T13:24:00.858Z,23.55
2019-01-24T13:26:04.559Z,21.40
2019-01-24T13:28:07.441Z,19.40
2019-01-24T13:30:11.078Z,18.40
2019-01-24T13:32:13.999Z,21.97
2019-01-24T13:34:16.983Z,19.70
2019-01-24T13:36:20.864Z,21.20
2019-01-24T13:38:24.075Z,20.88
2019-01-24T13:40:27.802Z,24.50
2019-01-24T13:42:32.090Z,21.23
2019-01-24T13:44:35.170Z,22.13
2019-01-24T13:46:38.078Z,22.48
2019-01-24T13:48:41.744Z,19.73
2019-01-24T13:50:45.298Z,20.98
2019-01-24T13:52:48.203Z,22.20
2019-01-24T13:54:51.352Z,21.67
2019-01-24T13:56:55.019Z,19.90
2019-01-24T13:58:57.952Z,21.15
2019-01-24T14:01:02.022Z,21.70
2019-01-24T14:03:06.322Z,21.70
2019-01-24T14:05:09.206Z,20.80
2019-01-24T14:07:12.159Z,20.42
2019-01-24T14:09:15.026Z,17.77
2019-01-24T14:11:19.291Z,20.90
2019-01-24T14:13:22.723Z,22.20
2019-01-24T14:15:25.628Z,22.58
2019-01-24T14:17:28.645Z,21.48
2019-01-24T14:19:31.565Z,21.95
2019-01-24T14:21:34.486Z,21.62
2019-01-24T14:23:37.385Z,21.25
2019-01-24T14:25:41.262Z,21.95
2019-01-24T14:27:44.271Z,22.45
2019-01-24T14:29:47.158Z,21.30
2019-01-24T14:31:50.167Z,21.08
2019-01-24T14:33:54.102Z,22.15
2019-01-24T14:35:57.066Z,23.58
2019-01-24T14:37:59.971Z,22.30
2019-01-24T14:40:02.895Z,21.65
2019-01-24T14:42:06.586Z,22.42
2019-01-24T14:44:09.462Z,21.37
2019-01-24T14:46:12.378Z,22.17
2019-01-24T14:48:16.047Z,22.17
2019-01-24T14:50:19.618Z,21.40
2019-01-24T14:52:22.518Z,23.83
2019-01-24T14:54:25.431Z,23.70
2019-01-24T14:56:30.158Z,23.60
2019-01-24T14:58:33.114Z,22.37
2019-01-24T15:00:36.091Z,22.20
2019-01-24T15:02:38.991Z,24.95
2019-01-24T15:04:42.651Z,24.15
2019-01-24T15:06:46.279Z,23.33
2019-01-24T15:08:49.172Z,25.58
2019-01-24T15:10:52.817Z,21.40
2019-01-24T15:12:56.276Z,24.33
2019-01-24T15:14:59.950Z,23.23
2019-01-24T15:17:02.947Z,23.83
2019-01-24T15:19:07.339Z,24.40
2019-01-24T15:21:10.231Z,24.65
2019-01-24T15:23:14.131Z,23.67
2019-01-24T15:25:17.013Z,23.05
2019-01-24T15:27:19.919Z,25.00
2019-01-24T15:29:23.587Z,22.35
2019-01-24T15:31:27.386Z,21.85
2019-01-24T15:33:30.282Z,25.37
2019-01-24T15:35:33.951Z,24.57
2019-01-24T15:37:36.859Z,23.53
2019-01-24T15:39:40.567Z,24.10
2019-01-24T15:41:43.538Z,24.95
2019-01-24T15:43:46.439Z,22.83
2019-01-24T15:45:50.611Z,23.92
2019-01-24T15:47:53.545Z,24.23
2019-01-24T15:49:57.738Z,23.62
2019-01-24T15:52:01.831Z,23.75
2019-01-24T15:54:04.730Z,24.23
2019-01-24T15:56:07.699Z,24.42
2019-01-24T15:58:11.374Z,24.27
2019-01-24T16:00:20.937Z,23.38
2019-01-24T16:02:24.156Z,23.17
2019-01-24T16:04:27.855Z,23.00
2019-01-24T16:06:31.518Z,23.83
2019-01-24T16:08:34.396Z,27.67
2019-01-24T16:10:37.384Z,26.17
2019-01-24T16:12:40.301Z,21.73
2019-01-24T16:14:43.947Z,24.70
2019-01-24T16:16:46.854Z,25.10
2019-01-24T16:18:49.726Z,24.93
2019-01-24T16:20:54.157Z,24.00
2019-01-24T16:22:57.807Z,24.67
2019-01-24T16:25:00.723Z,24.43
2019-01-24T16:27:03.797Z,24.70
2019-01-24T16:29:08.204Z,24.48
2019-01-24T16:31:11.094Z,24.05
2019-01-24T16:33:13.983Z,24.52
2019-01-24T16:35:16.902Z,22.92
2019-01-24T16:37:20.543Z,23.80
2019-01-24T16:39:23.432Z,21.15
2019-01-24T16:41:26.330Z,24.20
2019-01-24T16:43:30.005Z,24.33
2019-01-24T16:45:32.918Z,22.25
2019-01-24T16:47:37.326Z,22.27
2019-01-24T16:49:40.217Z,24.93
2019-01-24T16:51:44.615Z,24.42
2019-01-24T16:53:47.487Z,22.48
2019-01-24T16:55:50.586Z,21.80
2019-01-24T16:57:54.714Z,25.48
2019-01-24T16:59:58.432Z,24.15
2019-01-24T17:02:02.095Z,22.17
2019-01-24T17:04:04.987Z,23.33
2019-01-24T17:06:07.998Z,23.50
2019-01-24T17:08:16.510Z,20.07
2019-01-24T17:10:20.107Z,21.92
2019-01-24T17:12:24.482Z,24.65
2019-01-24T17:14:27.362Z,26.77
2019-01-24T17:16:30.272Z,24.42
2019-01-24T17:18:33.922Z,24.45
2019-01-24T17:20:36.826Z,25.20
2019-01-24T17:22:39.767Z,22.00
2019-01-24T17:24:43.190Z,22.37
2019-01-24T17:26:46.111Z,22.42
2019-01-24T17:28:50.041Z,25.15
2019-01-24T17:30:54.715Z,23.50
2019-01-24T17:32:57.625Z,22.80
2019-01-24T17:35:01.266Z,24.00
2019-01-24T17:37:04.316Z,22.90
2019-01-24T17:39:07.965Z,21.70
2019-01-24T17:41:10.876Z,24.33
2019-01-24T17:43:14.545Z,25.12
2019-01-24T17:45:17.431Z,24.27
2019-01-24T17:47:20.457Z,20.43
2019-01-24T17:49:24.798Z,22.73
2019-01-24T17:51:28.370Z,23.63
2019-01-24T17:53:32.043Z,24.47
2019-01-24T17:55:35.778Z,24.35
2019-01-24T17:57:38.718Z,23.10
2019-01-24T17:59:41.620Z,22.58
2019-01-24T18:01:44.514Z,24.85
2019-01-24T18:03:47.418Z,21.40
2019-01-24T18:05:50.347Z,24.73
2019-01-24T18:07:53.361Z,22.40
2019-01-24T18:09:57.737Z,24.20
2019-01-24T18:12:00.606Z,23.23
2019-01-24T18:14:03.524Z,24.83
2019-01-24T18:16:06.408Z,23.75
2019-01-24T18:18:10.916Z,24.87
2019-01-24T18:20:18.369Z,22.48
2019-01-24T18:22:18.311Z,23.40
2019-01-24T18:24:22.713Z,21.60
2019-01-24T18:26:25.606Z,21.95
2019-01-24T18:28:28.557Z,22.30
2019-01-24T18:30:31.438Z,24.60
2019-01-24T18:32:34.333Z,24.20
2019-01-24T18:34:37.238Z,22.93
2019-01-24T18:36:40.186Z,21.55
2019-01-24T18:38:43.268Z,25.95
2019-01-24T18:40:46.183Z,22.35
2019-01-24T18:42:49.047Z,24.67
2019-01-24T18:44:51.949Z,25.27
2019-01-24T18:46:55.637Z,26.98
2019-01-24T18:48:58.603Z,23.75
2019-01-24T18:51:01.597Z,23.90
2019-01-24T18:53:04.483Z,21.90
2019-01-24T18:55:07.487Z,24.12
2019-01-24T18:57:11.399Z,23.92
2019-01-24T18:59:15.070Z,24.10
2019-01-24T19:01:17.950Z,24.55
2019-01-24T19:03:21.847Z,23.17
2019-01-24T19:05:26.311Z,22.42
2019-01-24T19:07:29.985Z,22.75
2019-01-24T19:09:33.675Z,22.98
2019-01-24T19:11:36.565Z,22.30
2019-01-24T19:13:40.606Z,23.90
2019-01-24T19:15:43.926Z,25.77
2019-01-24T19:17:47.654Z,23.30
2019-01-24T19:19:50.572Z,21.70
2019-01-24T19:21:53.460Z,22.92
2019-01-24T19:23:56.358Z,23.33
2019-01-24T19:25:59.259Z,22.75
2019-01-24T19:28:02.138Z,23.77
2019-01-24T19:30:05.441Z,21.83
2019-01-24T19:32:08.368Z,21.27
2019-01-24T19:34:11.222Z,22.10
2019-01-24T19:36:14.894Z,21.62
2019-01-24T19:38:17.776Z,20.48
2019-01-24T19:40:21.330Z,21.77
2019-01-24T19:42:24.707Z,22.62
2019-01-24T19:44:29.124Z,23.25
2019-01-24T19:46:32.794Z,22.33
2019-01-24T19:48:35.689Z,22.35
2019-01-24T19:50:39.366Z,21.40
2019-01-24T19:52:42.251Z,21.98
2019-01-24T19:54:45.395Z,23.85
2019-01-24T19:56:48.321Z,22.47
2019-01-24T19:58:51.214Z,23.45
2019-01-24T20:00:54.222Z,23.97
2019-01-24T20:02:57.881Z,23.60
2019-01-24T20:05:00.771Z,21.63
2019-01-24T20:07:03.749Z,22.10
2019-01-24T20:09:07.658Z,22.37
2019-01-24T20:11:10.568Z,20.35
2019-01-24T20:13:14.220Z,22.70
2019-01-24T20:15:18.811Z,23.92
2019-01-24T20:17:21.731Z,23.40
2019-01-24T20:19:24.610Z,22.73
2019-01-24T20:21:27.507Z,24.00
2019-01-24T20:23:30.403Z,24.63
2019-01-24T20:25:34.058Z,21.50
2019-01-24T20:27:36.962Z,23.80
2019-01-24T20:29:39.864Z,24.55
2019-01-24T20:31:44.351Z,21.67
2019-01-24T20:33:47.232Z,25.20
2019-01-24T20:35:50.142Z,24.05
2019-01-24T20:37:53.814Z,24.50
2019-01-24T20:39:57.098Z,26.52
2019-01-24T20:41:59.999Z,22.85
2019-01-24T20:44:02.878Z,23.07
2019-01-24T20:46:05.774Z,24.93
2019-01-24T20:48:08.762Z,23.60
2019-01-24T20:50:13.167Z,24.37
2019-01-24T20:52:16.877Z,22.13
2019-01-24T20:54:20.535Z,22.50
2019-01-24T20:56:23.436Z,25.20
2019-01-24T20:58:26.340Z,24.33
2019-01-24T21:00:30.050Z,22.40
2019-01-24T21:02:33.702Z,24.90
2019-01-24T21:04:36.581Z,23.60
2019-01-24T21:06:39.580Z,24.55
2019-01-24T21:08:42.474Z,23.05
2019-01-24T21:10:46.472Z,24.50
2019-01-24T21:12:49.372Z,23.98
2019-01-24T21:14:53.217Z,24.48
2019-01-24T21:16:56.143Z,23.30
2019-01-24T21:18:59.794Z,24.73
2019-01-24T21:21:02.940Z,23.92
2019-01-24T21:23:05.702Z,22.83
2019-01-24T21:25:09.355Z,22.80
2019-01-24T21:27:12.283Z,24.05
2019-01-24T21:29:15.960Z,23.12
2019-01-24T21:31:18.850Z,23.15
2019-01-24T21:33:21.787Z,24.47
2019-01-24T21:35:24.673Z,25.60
2019-01-24T21:37:27.602Z,22.30
2019-01-24T21:39:31.289Z,26.27
2019-01-24T21:41:34.324Z,23.27
2019-01-24T21:43:37.977Z,25.08
2019-01-24T21:45:41.690Z,25.02
2019-01-24T21:47:44.702Z,22.92
2019-01-24T21:49:48.355Z,20.73
2019-01-24T21:51:51.246Z,23.90
2019-01-24T21:53:54.162Z,22.37
2019-01-24T21:55:57.111Z,23.83
2019-01-24T21:58:00.029Z,24.10
2019-01-24T22:00:03.682Z,23.90
2019-01-24T22:02:06.592Z,24.98
2019-01-24T22:04:10.271Z,25.27
2019-01-24T22:06:13.166Z,23.87
2019-01-24T22:08:17.059Z,25.60
2019-01-24T22:10:19.954Z,22.53
2019-01-24T22:12:24.150Z,26.92
2019-01-24T22:14:27.062Z,22.50
2019-01-24T22:16:31.111Z,26.17
2019-01-24T22:18:34.027Z,23.12
2019-01-24T22:20:37.691Z,23.38
2019-01-24T22:22:41.091Z,23.50
2019-01-24T22:24:44.068Z,24.20
2019-01-24T22:26:46.955Z,24.00
2019-01-24T22:28:49.993Z,22.95
2019-01-24T22:30:53.651Z,25.20
2019-01-24T22:32:56.547Z,24.85
2019-01-24T22:35:01.011Z,23.38
2019-01-24T22:37:04.048Z,25.02
2019-01-24T22:39:06.953Z,25.08
2019-01-24T22:41:10.607Z,25.27
2019-01-24T22:43:13.602Z,24.30
2019-01-24T22:45:18.267Z,23.08
2019-01-24T22:47:21.215Z,25.23
2019-01-24T22:49:24.118Z,25.35
2019-01-24T22:51:27.785Z,24.10
2019-01-24T22:53:31.047Z,22.00
2019-01-24T22:55:33.957Z,23.80
2019-01-24T22:57:36.952Z,22.83
2019-01-24T22:59:39.862Z,23.62
2019-01-24T23:01:43.490Z,22.42
2019-01-24T23:03:46.688Z,24.60
2019-01-24T23:05:50.722Z,23.50
2019-01-24T23:07:54.495Z,23.70
2019-01-24T23:09:57.410Z,24.40
2019-01-24T23:12:00.419Z,21.02
2019-01-24T23:14:04.062Z,23.70
2019-01-24T23:16:06.970Z,24.33
2019-01-24T23:18:11.369Z,23.30
2019-01-24T23:20:14.435Z,24.00
2019-01-24T23:22:17.618Z,21.55
2019-01-24T23:24:21.069Z,25.27
2019-01-24T23:26:24.735Z,22.47
2019-01-24T23:28:27.622Z,21.70
2019-01-24T23:30:30.610Z,22.67
2019-01-24T23:32:33.599Z,22.67
2019-01-24T23:34:36.549Z,23.75
2019-01-24T23:36:39.467Z,23.62
2019-01-24T23:38:42.570Z,24.02
2019-01-24T23:40:46.240Z,22.65
2019-01-24T23:42:49.134Z,22.80
2019-01-24T23:44:52.052Z,24.60
2019-01-24T23:46:54.958Z,23.12
2019-01-24T23:48:57.905Z,26.08
2019-01-24T23:51:01.558Z,22.42
2019-01-24T23:53:04.672Z,24.52
2019-01-24T23:55:07.675Z,24.53
2019-01-24T23:57:11.348Z,22.97
2019-01-24T23:59:15.038Z,23.45
